Time;durP1;ratioP1;P1;durP2;ratioP2;P2;SDS_P1;SDS_P2;PMS_P1;PMS_P2;Temp;Humidity;BMP_temperature;BMP_pressure;BME280_temperature;BME280_humidity;BME280_pressure;Samples;Min_cycle;Max_cycle;Signal;HPM_P1;HPM_P2
2021/04/02 00:01:55;;;;;;;18.33;9.03;;;5.00;99.90;;;-143.32;100.00;55764.31;5058387;28;20442;-92
2021/04/02 00:04:21;;;;;;;16.53;8.13;;;5.00;99.90;;;-143.32;100.00;55752.16;5056331;28;20480;-90
2021/04/02 00:06:48;;;;;;;18.53;8.60;;;5.10;99.90;;;-143.32;100.00;55717.81;5055560;28;20988;-88
2021/04/02 00:09:15;;;;;;;17.00;8.50;;;5.00;99.90;;;-143.32;100.00;55723.88;5056089;28;20448;-92
2021/04/02 00:11:41;;;;;;;21.53;8.00;;;5.00;99.90;;;-143.32;100.00;55770.34;5055499;28;20440;-88
2021/04/02 00:14:10;;;;;;;17.53;8.90;;;5.00;99.90;;;-143.32;100.00;55721.84;5055019;28;20455;-89
2021/04/02 00:16:37;;;;;;;18.03;8.53;;;5.00;99.90;;;-143.32;100.00;55754.19;5055455;28;20479;-88
2021/04/02 00:19:05;;;;;;;17.03;8.63;;;4.90;99.90;;;-143.32;100.00;55754.19;5055426;28;20439;-88
2021/04/02 00:21:32;;;;;;;12.40;8.43;;;4.90;99.90;;;-143.32;100.00;55707.72;5055977;28;20445;-91
2021/04/02 00:27:40;;;;;;;13.90;9.00;;;4.80;99.90;;;-143.32;100.00;55729.94;5055297;28;20395;-89
2021/04/02 00:30:16;;;;;;;14.80;8.80;;;4.80;99.90;;;-143.32;100.00;55727.91;5055161;28;20804;-88
2021/04/02 00:32:44;;;;;;;17.23;9.20;;;4.70;99.90;;;-143.32;100.00;55740.03;5056416;28;20464;-92
2021/04/02 00:35:13;;;;;;;13.73;8.50;;;4.70;99.90;;;-143.32;100.00;55721.84;5055407;28;20444;-88
2021/04/02 00:37:40;;;;;;;15.47;8.70;;;4.70;99.90;;;-143.32;100.00;55721.84;5055462;28;20432;-89
2021/04/02 00:40:17;;;;;;;15.63;8.27;;;4.70;99.90;;;-143.32;100.00;55699.63;5054966;28;20448;-93
2021/04/02 00:42:44;;;;;;;18.37;8.90;;;4.70;99.90;;;-143.32;100.00;55707.72;5055578;28;20475;-89
2021/04/02 00:45:15;;;;;;;25.57;9.43;;;4.60;99.90;;;-143.32;100.00;55723.88;5054734;28;21016;-93
2021/04/02 00:47:42;;;;;;;23.37;9.03;;;4.60;99.90;;;-143.32;100.00;55721.84;5055046;28;20879;-89
2021/04/02 00:50:14;;;;;;;19.97;10.10;;;4.60;99.90;;;-143.32;100.00;55715.78;5054907;28;20958;-90
2021/04/02 00:52:40;;;;;;;13.60;9.17;;;4.60;99.90;;;-143.32;100.00;55677.38;5055448;28;20420;-88
2021/04/02 00:55:11;;;;;;;22.13;10.20;;;4.50;99.90;;;-143.32;100.00;55721.84;5055120;28;20471;-89
2021/04/02 00:57:38;;;;;;;22.07;9.90;;;4.50;99.90;;;-143.32;100.00;55729.94;5054255;28;20474;-88
2021/04/02 01:00:08;;;;;;;16.60;9.07;;;4.40;99.90;;;-143.32;100.00;55707.72;5054475;28;20795;-90
2021/04/02 01:02:37;;;;;;;20.80;9.90;;;4.40;99.90;;;-143.32;100.00;55675.38;5055914;28;20464;-93
2021/04/02 01:05:11;;;;;;;16.73;10.03;;;4.40;99.90;;;-143.32;100.00;55705.69;5055860;28;20436;-93
2021/04/02 01:07:37;;;;;;;19.20;8.63;;;4.40;99.90;;;-143.32;100.00;55703.66;5055641;28;20432;-92
2021/04/02 01:10:10;;;;;;;26.67;9.40;;;4.40;99.90;;;-143.32;100.00;55679.41;5054754;28;20439;-92
2021/04/02 01:12:37;;;;;;;13.20;9.17;;;4.30;99.90;;;-143.32;100.00;55693.56;5056375;28;20479;-94
2021/04/02 01:15:12;;;;;;;16.10;9.07;;;4.30;99.90;;;-143.32;100.00;55689.50;5054701;28;20436;-93
2021/04/02 01:17:47;;;;;;;24.23;9.50;;;4.20;99.90;;;-143.32;100.00;55689.50;5055921;28;20498;-93
2021/04/02 01:20:14;;;;;;;16.83;8.90;;;4.30;99.90;;;-143.32;100.00;55709.72;5055359;28;20408;-91
2021/04/02 01:22:45;;;;;;;16.10;8.80;;;4.30;99.90;;;-143.32;100.00;55707.72;5055013;28;20491;-91
2021/04/02 01:25:27;;;;;;;27.00;9.37;;;4.30;99.90;;;-143.32;100.00;55657.19;5054883;28;20444;-94
2021/04/02 01:28:11;;;;;;;17.40;8.57;;;4.30;99.90;;;-143.32;100.00;55663.25;5055391;28;20440;-92
2021/04/02 01:30:40;;;;;;;17.30;8.83;;;4.20;99.90;;;-143.32;100.00;55677.38;5054840;28;20409;-92
2021/04/02 01:33:10;;;;;;;14.03;8.20;;;4.20;99.90;;;-143.32;100.00;55655.16;5054954;28;20450;-93
2021/04/02 01:35:39;;;;;;;22.33;10.73;;;4.20;99.90;;;-143.32;100.00;55649.09;5055018;28;20428;-93
2021/04/02 01:38:11;;;;;;;17.23;7.93;;;4.10;99.90;;;-143.32;100.00;55630.91;5055763;28;21012;-93
2021/04/02 01:40:43;;;;;;;15.40;7.60;;;4.10;99.90;;;-143.32;100.00;55600.59;5058134;28;20902;-93
2021/04/02 01:43:15;;;;;;;19.63;9.30;;;4.10;99.90;;;-143.32;100.00;55620.81;5056387;28;20468;-93
2021/04/02 01:45:45;;;;;;;15.17;8.27;;;4.00;99.90;;;-143.32;100.00;55639.00;5056324;28;20447;-93
2021/04/02 01:48:15;;;;;;;19.00;9.17;;;4.00;99.90;;;-143.32;100.00;55610.69;5055845;28;20447;-91
2021/04/02 01:50:45;;;;;;;15.43;8.97;;;3.90;99.90;;;-143.32;100.00;55578.34;5055890;28;20502;-93
2021/04/02 01:53:13;;;;;;;17.90;9.17;;;3.90;99.90;;;-143.32;100.00;55610.69;5056650;28;20448;-93
2021/04/02 01:55:41;;;;;;;18.43;9.50;;;3.90;99.90;;;-143.32;100.00;55616.75;5056059;28;20440;-93
2021/04/02 01:58:09;;;;;;;24.73;9.33;;;4.10;99.90;;;-143.32;100.00;55582.41;5056149;28;20451;-92
2021/04/02 02:00:43;;;;;;;20.47;8.40;;;3.90;99.90;;;-143.32;100.00;55584.41;5055582;28;20428;-93
2021/04/02 02:03:11;;;;;;;20.23;8.30;;;3.90;99.90;;;-143.32;100.00;55576.34;5057134;28;20499;-92
2021/04/02 02:05:39;;;;;;;13.93;7.80;;;3.90;99.90;;;-143.32;100.00;55586.44;5056537;28;20508;-92
2021/04/02 02:08:07;;;;;;;16.00;9.50;;;3.90;99.90;;;-143.32;100.00;55558.16;5056166;28;20453;-93
2021/04/02 02:10:35;;;;;;;15.93;8.50;;;3.90;99.90;;;-143.32;100.00;55574.31;5056831;28;20436;-93
2021/04/02 02:13:04;;;;;;;16.63;7.87;;;3.90;99.90;;;-143.32;100.00;55568.25;5054920;28;20629;-92
2021/04/02 02:15:32;;;;;;;22.73;8.67;;;3.90;99.90;;;-143.32;100.00;55576.34;5054593;28;20459;-92
2021/04/02 02:18:04;;;;;;;17.50;8.67;;;4.10;99.90;;;-143.32;100.00;55570.28;5056848;28;20452;-91
2021/04/02 02:20:33;;;;;;;19.67;8.43;;;3.90;99.90;;;-143.32;100.00;55548.03;5059543;28;20456;-91
2021/04/02 02:23:00;;;;;;;29.10;8.67;;;4.00;99.90;;;-143.32;100.00;55544.00;5058105;28;20494;-91
2021/04/02 02:25:28;;;;;;;18.60;9.00;;;3.90;99.90;;;-143.32;100.00;55544.00;5059310;28;20947;-92
2021/04/02 02:27:55;;;;;;;18.67;8.50;;;3.90;99.90;;;-143.32;100.00;55519.75;5063502;28;20448;-91
2021/04/02 02:30:26;;;;;;;21.37;9.43;;;3.90;99.90;;;-143.32;100.00;55503.59;5063694;28;20424;-92
2021/04/02 02:32:54;;;;;;;24.20;8.27;;;3.90;99.90;;;-143.32;100.00;55521.78;5060165;28;20458;-93
2021/04/02 02:35:22;;;;;;;13.60;7.70;;;3.80;99.90;;;-143.32;100.00;55519.75;5057662;28;20807;-93
2021/04/02 02:37:51;;;;;;;16.37;8.07;;;3.80;99.90;;;-143.32;100.00;55531.88;5057155;28;20428;-93
2021/04/02 02:40:21;;;;;;;20.87;9.03;;;3.80;99.90;;;-143.32;100.00;55525.81;5058970;28;20451;-92
2021/04/02 02:42:50;;;;;;;27.10;8.83;;;3.70;99.90;;;-143.32;100.00;55475.28;5063296;28;20487;-92
2021/04/02 02:45:18;;;;;;;25.97;8.90;;;3.70;99.90;;;-143.32;100.00;55501.56;5064086;28;20447;-92
2021/04/02 02:47:46;;;;;;;19.00;9.70;;;3.70;99.90;;;-143.32;100.00;55493.47;5061855;28;20451;-92
2021/04/02 02:50:16;;;;;;;17.80;8.60;;;3.60;99.90;;;-143.32;100.00;55487.41;5058302;28;20843;-92
2021/04/02 02:52:47;;;;;;;17.00;9.10;;;3.60;99.90;;;-143.32;100.00;55473.28;5058341;28;20428;-92
2021/04/02 02:55:17;;;;;;;16.93;8.60;;;3.60;99.90;;;-143.32;100.00;55475.28;5058305;28;20467;-91
2021/04/02 02:57:48;;;;;;;18.30;8.17;;;3.60;99.90;;;-143.32;100.00;55467.22;5057769;28;20795;-91
2021/04/02 03:00:20;;;;;;;18.80;9.50;;;3.60;99.90;;;-143.32;100.00;55469.22;5057353;28;20474;-93
2021/04/02 03:02:50;;;;;;;20.10;8.17;;;3.60;99.90;;;-143.32;100.00;55467.22;5056230;28;20530;-89
2021/04/02 03:05:20;;;;;;;15.17;8.03;;;3.70;99.90;;;-143.32;100.00;55455.06;5056283;28;20432;-91
2021/04/02 03:07:53;;;;;;;20.27;8.23;;;3.60;99.90;;;-143.32;100.00;55410.63;5057048;28;20482;-92
2021/04/02 03:10:20;;;;;;;29.90;9.23;;;3.60;99.90;;;-143.32;100.00;55449.00;5058148;28;20416;-91
2021/04/02 03:12:49;;;;;;;29.00;9.10;;;3.60;99.90;;;-143.32;100.00;55453.06;5059724;28;20958;-91
2021/04/02 03:15:19;;;;;;;30.43;8.07;;;3.50;99.90;;;-143.32;100.00;55438.91;5059128;28;20447;-91
2021/04/02 03:17:52;;;;;;;17.17;8.37;;;3.50;99.90;;;-143.32;100.00;55426.78;5058812;28;20416;-91
2021/04/02 03:20:21;;;;;;;24.77;8.40;;;3.50;99.90;;;-143.32;100.00;55404.56;5057671;28;20470;-92
2021/04/02 03:22:50;;;;;;;21.17;8.87;;;3.50;99.90;;;-143.32;100.00;55438.91;5058572;28;20483;-92
2021/04/02 03:25:20;;;;;;;18.23;8.40;;;3.50;99.90;;;-143.32;100.00;55432.84;5058067;28;20428;-93
2021/04/02 03:27:48;;;;;;;12.90;7.70;;;3.50;99.90;;;-143.32;100.00;55414.66;5057659;28;20436;-92
2021/04/02 03:30:18;;;;;;;18.63;8.13;;;3.50;99.90;;;-143.32;100.00;55390.41;5056307;28;20546;-92
2021/04/02 03:32:51;;;;;;;18.33;8.50;;;3.50;99.90;;;-143.32;100.00;55404.56;5057536;28;20443;-90
2021/04/02 03:35:20;;;;;;;15.33;7.43;;;3.40;99.90;;;-143.32;100.00;55414.66;5057319;28;20914;-93
2021/04/02 03:37:50;;;;;;;25.20;8.63;;;3.30;99.90;;;-143.32;100.00;55418.69;5056898;28;20436;-91
2021/04/02 03:40:21;;;;;;;22.07;7.80;;;3.30;99.90;;;-143.32;100.00;55412.63;5057049;28;20890;-91
2021/04/02 03:42:54;;;;;;;20.87;8.13;;;3.40;99.90;;;-143.32;100.00;55436.88;5056502;28;20456;-91
2021/04/02 03:45:23;;;;;;;20.00;9.30;;;3.40;99.90;;;-143.32;100.00;55432.84;5056746;28;20456;-94
2021/04/02 03:47:52;;;;;;;19.13;9.00;;;3.20;99.90;;;-143.32;100.00;55398.50;5056780;28;20451;-92
2021/04/02 03:50:21;;;;;;;27.43;9.53;;;3.10;99.90;;;-143.32;100.00;55380.31;5056857;28;20522;-92
2021/04/02 03:53:04;;;;;;;14.20;8.80;;;3.10;99.90;;;-143.32;100.00;55331.81;5056126;28;20451;-91
2021/04/02 03:55:32;;;;;;;21.33;8.70;;;3.20;99.90;;;-143.32;100.00;55382.31;5057159;28;20502;-92
2021/04/02 03:58:02;;;;;;;15.17;8.73;;;3.20;99.90;;;-143.32;100.00;55339.88;5057148;28;20791;-93
2021/04/02 04:00:32;;;;;;;17.83;7.97;;;3.20;99.90;;;-143.32;100.00;55341.91;5057630;28;20922;-91
2021/04/02 04:03:01;;;;;;;14.70;8.00;;;3.20;99.90;;;-143.32;100.00;55350.00;5056576;28;20468;-92
2021/04/02 04:05:30;;;;;;;21.83;7.80;;;3.10;99.90;;;-143.32;100.00;55325.75;5056699;28;20443;-92
2021/04/02 04:07:58;;;;;;;19.33;7.60;;;3.10;99.90;;;-143.32;100.00;55299.47;5056545;28;20440;-91
2021/04/02 04:10:26;;;;;;;19.57;7.93;;;3.10;99.90;;;-143.32;100.00;55313.63;5057199;28;20436;-93
2021/04/02 04:12:56;;;;;;;21.60;8.53;;;3.20;99.90;;;-143.32;100.00;55309.56;5055905;28;20444;-88
2021/04/02 04:15:26;;;;;;;16.30;7.43;;;3.20;99.90;;;-143.32;100.00;55337.88;5055228;28;20479;-89
2021/04/02 04:17:53;;;;;;;19.03;7.40;;;3.20;99.90;;;-143.32;100.00;55327.75;5055901;28;20451;-89
2021/04/02 04:20:22;;;;;;;16.40;7.57;;;3.20;99.90;;;-143.32;100.00;55339.88;5055129;28;20447;-89
2021/04/02 04:22:51;;;;;;;17.20;7.73;;;3.20;99.90;;;-143.32;100.00;55311.59;5054700;28;20483;-88
2021/04/02 04:25:24;;;;;;;16.03;7.50;;;3.20;99.90;;;-143.32;100.00;55321.69;5055143;28;20444;-88
2021/04/02 04:27:52;;;;;;;17.13;7.20;;;3.20;99.90;;;-143.32;100.00;55335.84;5055587;28;20899;-88
2021/04/02 04:30:21;;;;;;;20.17;7.77;;;3.20;99.90;;;-143.32;100.00;55333.81;5054892;28;20448;-89
2021/04/02 04:32:48;;;;;;;38.17;11.00;;;3.20;99.90;;;-143.32;100.00;55271.19;5054826;28;20440;-88
2021/04/02 04:35:18;;;;;;;30.63;11.33;;;3.20;99.90;;;-143.32;100.00;55283.31;5054758;28;20447;-89
2021/04/02 04:37:46;;;;;;;23.33;10.20;;;3.10;99.90;;;-143.32;100.00;55263.09;5054700;28;20930;-87
2021/04/02 04:40:17;;;;;;;27.83;9.83;;;3.20;99.90;;;-143.32;100.00;55285.31;5054795;28;20498;-90
2021/04/02 04:42:47;;;;;;;19.20;9.40;;;3.30;99.90;;;-143.32;100.00;55291.38;5054585;28;20510;-88
2021/04/02 04:45:19;;;;;;;28.47;8.63;;;3.30;99.90;;;-143.32;100.00;55309.56;5054559;28;20456;-89
2021/04/02 04:47:46;;;;;;;17.17;8.33;;;3.40;99.90;;;-143.32;100.00;55275.22;5056479;28;20527;-92
2021/04/02 04:50:15;;;;;;;12.40;7.13;;;3.50;99.90;;;-143.32;100.00;55299.47;5056138;28;20475;-91
2021/04/02 04:52:49;;;;;;;24.30;7.30;;;3.60;99.90;;;-143.32;100.00;55263.09;5055183;28;20445;-92
2021/04/02 04:55:17;;;;;;;24.20;7.50;;;3.70;99.90;;;-143.32;100.00;55248.94;5058698;28;20451;-90
2021/04/02 04:57:47;;;;;;;15.63;7.17;;;3.80;99.90;;;-143.32;100.00;55285.31;5060242;28;20475;-92
2021/04/02 05:00:17;;;;;;;25.60;7.87;;;3.80;99.90;;;-143.32;100.00;55315.63;5061050;28;20432;-92
2021/04/02 05:02:46;;;;;;;25.67;8.47;;;3.70;99.90;;;-143.32;100.00;55263.09;5061517;28;20428;-92
2021/04/02 05:05:22;;;;;;;23.00;7.57;;;3.70;99.90;;;-143.32;100.00;55287.34;5059969;28;20459;-92
2021/04/02 05:07:51;;;;;;;22.20;8.40;;;3.70;99.90;;;-143.32;100.00;55289.38;5059369;28;20440;-91
2021/04/02 05:10:24;;;;;;;20.17;7.93;;;3.70;99.90;;;-143.32;100.00;55275.22;5056995;28;20827;-90
2021/04/02 05:12:54;;;;;;;22.67;8.70;;;3.70;99.90;;;-143.32;100.00;55242.88;5057917;28;20527;-92
2021/04/02 05:15:22;;;;;;;17.33;7.67;;;3.70;99.90;;;-143.32;100.00;55244.91;5060889;28;20423;-92
2021/04/02 05:17:50;;;;;;;29.33;8.57;;;3.80;99.90;;;-143.32;100.00;55230.75;5056314;28;20506;-92
2021/04/02 05:20:18;;;;;;;23.03;8.90;;;3.80;99.90;;;-143.32;100.00;55222.69;5057352;28;20436;-91
2021/04/02 05:22:49;;;;;;;34.23;10.57;;;3.70;99.90;;;-143.32;100.00;55218.63;5055844;28;20485;-90
2021/04/02 05:25:16;;;;;;;26.90;9.87;;;3.90;99.90;;;-143.32;100.00;55176.19;5055939;28;20474;-90
2021/04/02 05:27:46;;;;;;;25.83;9.20;;;4.10;99.90;;;-143.32;100.00;55182.25;5055043;28;20795;-92
2021/04/02 05:30:15;;;;;;;38.33;12.10;;;4.00;99.90;;;-143.32;100.00;55176.19;5058097;28;20444;-93
2021/04/02 05:32:42;;;;;;;30.33;10.30;;;4.10;99.90;;;-143.32;100.00;55168.13;5056554;28;20470;-92
2021/04/02 05:35:11;;;;;;;31.03;9.73;;;4.20;99.90;;;-143.32;100.00;55160.03;5057012;28;20830;-92
2021/04/02 05:37:38;;;;;;;24.60;9.10;;;4.20;99.90;;;-143.32;100.00;55164.06;5055503;28;20536;-93
2021/04/02 05:40:06;;;;;;;30.30;9.13;;;4.40;99.90;;;-143.32;100.00;55151.94;5056009;28;20440;-94
2021/04/02 05:42:36;;;;;;;21.37;8.93;;;4.30;99.90;;;-143.32;100.00;55194.38;5055896;28;20428;-92
2021/04/02 05:45:05;;;;;;;31.73;9.17;;;4.30;99.90;;;-143.32;100.00;55188.31;5057355;28;20459;-92
2021/04/02 05:47:34;;;;;;;20.53;8.43;;;4.40;99.90;;;-143.32;100.00;55182.25;5055046;28;20799;-91
2021/04/02 05:50:02;;;;;;;37.63;10.43;;;4.50;99.90;;;-143.32;100.00;55226.72;5053663;28;20454;-89
2021/04/02 05:52:30;;;;;;;27.57;11.23;;;4.40;99.90;;;-143.32;100.00;55194.38;5053551;28;20456;-88
2021/04/02 05:55:00;;;;;;;23.90;9.63;;;4.30;99.90;;;-143.32;100.00;55210.56;5053130;28;20448;-90
2021/04/02 05:57:27;;;;;;;30.00;9.50;;;4.40;99.90;;;-143.32;100.00;55261.06;5053797;28;20883;-90
2021/04/02 05:59:57;;;;;;;31.50;12.50;;;4.50;99.90;;;-143.32;100.00;55230.75;5053508;28;20524;-89
2021/04/02 06:02:24;;;;;;;30.27;12.47;;;4.50;99.90;;;-143.32;100.00;55226.72;5053509;28;20424;-89
2021/04/02 06:04:52;;;;;;;25.30;10.40;;;4.70;99.90;;;-143.32;100.00;55228.75;5053492;28;20495;-88
2021/04/02 06:07:18;;;;;;;23.00;10.33;;;4.60;99.90;;;-143.32;100.00;55204.50;5053498;28;20548;-91
2021/04/02 06:09:45;;;;;;;23.33;9.73;;;4.70;99.90;;;-143.32;100.00;55263.09;5053501;28;20439;-89
2021/04/02 06:12:12;;;;;;;21.23;10.67;;;4.70;99.90;;;-143.32;100.00;55261.06;5053445;28;20482;-89
2021/04/02 06:14:39;;;;;;;24.23;9.97;;;4.70;99.90;;;-143.32;100.00;55275.22;5053395;28;20444;-89
2021/04/02 06:17:06;;;;;;;18.37;8.43;;;4.70;99.90;;;-143.32;100.00;55246.94;5053387;28;20475;-90
2021/04/02 06:19:33;;;;;;;20.90;9.30;;;4.70;99.90;;;-143.32;100.00;55240.88;5053646;28;20440;-92
2021/04/02 06:22:01;;;;;;;19.87;8.53;;;4.70;99.90;;;-143.32;100.00;55255.00;5060333;28;20436;-93
2021/04/02 06:28:14;;;;;;;33.43;9.40;;;4.80;99.90;;;-143.32;100.00;55263.09;5057132;28;20855;-93
2021/04/02 06:30:43;;;;;;;20.97;9.17;;;4.70;99.90;;;-143.32;100.00;55275.22;5056109;28;20988;-91
2021/04/02 06:33:11;;;;;;;24.07;8.53;;;4.70;99.90;;;-143.32;100.00;55250.97;5055169;28;20506;-91
2021/04/02 06:35:42;;;;;;;16.03;9.10;;;4.80;99.90;;;-143.32;100.00;55277.25;5055096;28;20451;-92
2021/04/02 06:38:14;;;;;;;15.30;8.30;;;4.80;99.90;;;-143.32;100.00;55307.56;5057409;28;20522;-92
2021/04/02 06:40:41;;;;;;;20.13;10.17;;;4.70;99.90;;;-143.32;100.00;55279.25;5055147;28;20459;-93
2021/04/02 06:43:08;;;;;;;25.03;9.40;;;4.70;99.90;;;-143.32;100.00;55297.44;5055407;28;20476;-92
2021/04/02 06:45:35;;;;;;;16.87;8.40;;;4.70;99.90;;;-143.32;100.00;55263.09;5055741;28;20973;-94
2021/04/02 06:48:14;;;;;;;22.60;8.27;;;4.70;99.90;;;-143.32;100.00;55329.78;5055509;28;20459;-92
2021/04/02 06:50:41;;;;;;;17.80;8.00;;;4.60;99.90;;;-143.32;100.00;55321.69;5055441;28;20822;-92
2021/04/02 06:53:10;;;;;;;14.27;7.10;;;4.60;99.90;;;-143.32;100.00;55295.44;5054562;28;20490;-92
2021/04/02 06:55:39;;;;;;;17.23;8.33;;;4.60;99.90;;;-143.32;100.00;55287.34;5054250;28;20428;-91
2021/04/02 06:58:12;;;;;;;14.57;7.87;;;4.60;99.90;;;-143.32;100.00;55287.34;5053950;28;20572;-92
2021/04/02 07:00:41;;;;;;;20.90;8.67;;;4.70;99.90;;;-143.32;100.00;55275.22;5054361;28;20412;-93
2021/04/02 07:03:09;;;;;;;16.07;7.93;;;4.70;99.90;;;-143.32;100.00;55299.47;5054498;28;20845;-92
2021/04/02 07:05:36;;;;;;;20.70;8.90;;;4.80;99.90;;;-143.32;100.00;55283.31;5055943;28;20436;-93
2021/04/02 07:08:06;;;;;;;20.33;8.90;;;4.90;99.90;;;-143.32;100.00;55293.41;5058780;28;20436;-92
2021/04/02 07:10:37;;;;;;;19.30;9.37;;;4.90;99.90;;;-143.32;100.00;55317.66;5057532;28;20433;-92
2021/04/02 07:13:07;;;;;;;18.67;8.60;;;4.90;99.90;;;-143.32;100.00;55309.56;5057840;28;20429;-92
2021/04/02 07:15:37;;;;;;;22.60;10.50;;;5.00;99.90;;;-143.32;100.00;55319.69;5065429;28;20421;-94
2021/04/02 07:18:08;;;;;;;15.70;8.90;;;5.00;99.90;;;-143.32;100.00;55321.69;5070421;28;20412;-93
2021/04/02 07:20:36;;;;;;;21.20;9.77;;;5.00;99.90;;;-143.32;100.00;55335.84;5071981;28;20430;-93
2021/04/02 07:23:05;;;;;;;19.60;9.30;;;5.10;99.90;;;-143.32;100.00;55388.38;5071430;28;20476;-94
2021/04/02 07:25:37;;;;;;;14.70;9.80;;;5.10;99.90;;;-143.32;100.00;55352.00;5074043;28;20512;-95
2021/04/02 07:28:07;;;;;;;22.90;10.13;;;5.10;99.90;;;-143.32;100.00;55343.94;5073801;28;20452;-95
2021/04/02 07:30:35;;;;;;;29.67;11.90;;;5.10;99.90;;;-143.32;100.00;55331.81;5075127;28;20438;-91
2021/04/02 07:33:06;;;;;;;23.13;10.90;;;5.30;99.90;;;-143.32;100.00;55368.19;5059541;28;20452;-92
2021/04/02 07:35:33;;;;;;;31.00;14.50;;;5.20;99.90;;;-143.32;100.00;55341.91;5057307;28;20436;-91
2021/04/02 07:38:00;;;;;;;20.83;10.53;;;5.20;99.90;;;-143.32;100.00;55335.84;5057916;28;20446;-92
2021/04/02 07:40:42;;;;;;;30.73;16.40;;;5.30;99.90;;;-143.32;100.00;55327.75;5073562;28;20432;-94
2021/04/02 07:43:10;;;;;;;36.03;20.30;;;5.40;99.90;;;-143.32;100.00;55331.81;5075689;28;20472;-94
2021/04/02 07:49:20;;;;;;;34.00;14.33;;;5.40;99.90;;;-143.32;100.00;55364.13;5070853;28;20490;-93
2021/04/02 07:55:27;;;;;;;25.73;15.07;;;5.50;99.90;;;-143.32;100.00;55392.44;5060549;28;20411;-91
2021/04/02 07:57:58;;;;;;;32.70;16.30;;;5.50;99.90;;;-143.32;100.00;55366.16;5055113;28;20922;-93
2021/04/02 08:00:27;;;;;;;34.43;18.80;;;5.50;99.90;;;-143.32;100.00;55378.28;5055505;28;20444;-91
2021/04/02 08:03:13;;;;;;;28.90;17.90;;;5.50;99.90;;;-143.32;100.00;55400.50;5055922;28;20448;-90
2021/04/02 08:05:46;;;;;;;26.47;15.50;;;5.70;99.90;;;-143.32;100.00;55386.38;5055969;28;20451;-89
2021/04/02 08:08:15;;;;;;;24.07;15.20;;;5.70;99.90;;;-143.32;100.00;55444.97;5057485;28;20471;-91
2021/04/02 08:11:01;;;;;;;22.20;14.03;;;5.70;99.90;;;-143.32;100.00;55386.38;5068065;28;20476;-92
2021/04/02 08:13:29;;;;;;;24.23;13.60;;;5.70;99.90;;;-143.32;100.00;55436.88;5055061;28;20432;-92
2021/04/02 08:15:57;;;;;;;23.20;14.20;;;5.60;99.90;;;-143.32;100.00;55430.81;5061606;28;20448;-91
2021/04/02 08:18:26;;;;;;;32.20;14.97;;;5.60;99.90;;;-143.32;100.00;55402.53;5056148;28;20851;-89
2021/04/02 08:20:56;;;;;;;27.03;14.93;;;5.90;99.90;;;-143.32;100.00;55414.66;5055655;28;20787;-89
2021/04/02 08:23:26;;;;;;;29.50;17.27;;;5.70;99.90;;;-143.32;100.00;55436.88;5055159;28;20487;-87
2021/04/02 08:29:36;;;;;;;35.10;19.67;;;5.70;99.90;;;-143.32;100.00;55434.88;5054980;28;20415;-88
2021/04/02 08:32:06;;;;;;;31.47;16.70;;;5.70;99.90;;;-143.32;100.00;55420.72;5054855;28;20464;-89
2021/04/02 08:34:35;;;;;;;30.13;14.60;;;5.80;99.90;;;-143.32;99.90;55465.19;5055244;28;20838;-89
2021/04/02 08:37:05;;;;;;;23.07;13.50;;;5.70;99.90;;;-143.32;99.85;55447.00;5054795;28;20451;-91
2021/04/02 08:39:32;;;;;;;25.73;12.57;;;5.80;99.90;;;-143.32;99.92;55455.06;5054690;28;20478;-90
2021/04/02 08:42:01;;;;;;;20.30;12.97;;;5.90;99.90;;;-143.32;99.51;55457.09;5055463;28;20455;-90
2021/04/02 08:44:30;;;;;;;27.47;14.40;;;5.90;99.90;;;-143.32;99.18;55444.97;5055970;28;20495;-87
2021/04/02 08:47:00;;;;;;;19.67;13.17;;;5.90;99.90;;;-143.32;99.73;55432.84;5055583;28;20919;-90
2021/04/02 08:49:35;;;;;;;25.57;14.13;;;5.90;99.90;;;-143.32;99.94;55507.63;5054923;28;20949;-91
2021/04/02 08:55:44;;;;;;;23.13;13.63;;;5.90;99.90;;;-143.32;99.44;55418.69;5054538;28;20407;-89
2021/04/02 08:58:11;;;;;;;23.93;14.23;;;6.00;99.90;;;-143.32;99.17;55461.13;5054836;28;20440;-88
2021/04/02 09:00:38;;;;;;;25.87;12.27;;;6.00;99.90;;;-143.32;98.88;55430.81;5055519;28;20452;-88
2021/04/02 09:03:08;;;;;;;15.60;9.80;;;6.00;99.90;;;-143.32;98.25;55449.00;5054790;28;20498;-90
2021/04/02 09:05:35;;;;;;;18.77;9.67;;;6.00;99.90;;;-143.32;98.12;55479.34;5060142;28;20424;-94
2021/04/02 09:08:03;;;;;;;23.87;10.63;;;6.10;99.90;;;-143.32;98.70;55444.97;5062610;28;20440;-92
2021/04/02 09:10:31;;;;;;;21.83;9.80;;;6.10;99.90;;;-143.32;98.47;55487.41;5063101;28;20791;-93
2021/04/02 09:12:57;;;;;;;21.43;10.13;;;6.10;99.90;;;-143.32;98.54;55467.22;5064181;28;20436;-89
2021/04/02 09:19:07;;;;;;;25.50;10.30;;;6.20;99.90;;;-143.32;97.96;55457.09;5062957;28;20399;-91
2021/04/02 09:21:35;;;;;;;20.43;10.73;;;6.20;99.90;;;-143.32;97.62;55491.47;5058019;28;20943;-92
2021/04/02 09:24:04;;;;;;;19.33;9.47;;;6.30;99.90;;;-143.32;97.61;55469.22;5058646;28;20487;-92
2021/04/02 09:26:37;;;;;;;18.93;9.23;;;6.10;99.90;;;-143.32;97.62;55475.28;5058624;28;20541;-92
2021/04/02 09:29:04;;;;;;;19.40;10.00;;;6.20;99.90;;;-143.32;96.90;55481.34;5060319;28;20408;-92
2021/04/02 09:31:36;;;;;;;19.73;8.67;;;6.20;99.90;;;-143.32;96.70;55449.00;5071945;28;20459;-94
2021/04/02 09:34:07;;;;;;;14.70;8.73;;;6.30;99.90;;;-143.32;97.09;55519.75;5073662;28;20775;-92
2021/04/02 09:36:37;;;;;;;19.87;9.73;;;6.30;99.90;;;-143.32;97.35;55481.34;5075590;28;20423;-94
2021/04/02 09:39:08;;;;;;;16.33;9.27;;;6.20;99.90;;;-143.32;97.14;55479.34;5077802;28;20413;-92
2021/04/02 09:41:37;;;;;;;23.83;9.00;;;6.30;99.90;;;-143.32;95.96;55521.78;5078369;28;20465;-92
2021/04/02 09:44:10;;;;;;;18.50;8.00;;;6.40;99.90;;;-143.32;95.31;55469.22;5078340;28;20471;-92
2021/04/02 09:46:50;;;;;;;13.60;8.63;;;6.50;99.90;;;-143.32;94.33;55527.84;5077278;28;20439;-93
2021/04/02 09:49:20;;;;;;;20.67;8.73;;;6.50;99.90;;;-143.32;94.66;55527.84;5062329;28;20458;-92
2021/04/02 09:51:50;;;;;;;16.33;8.90;;;6.50;99.90;;;-143.32;95.12;55493.47;5066078;28;20418;-93
2021/04/02 09:54:19;;;;;;;19.50;9.73;;;6.50;99.90;;;-143.32;95.47;55495.50;5065767;28;20531;-92
2021/04/02 09:56:54;;;;;;;15.93;8.80;;;6.50;99.90;;;-143.32;95.36;55483.38;5066336;28;20444;-91
2021/04/02 09:59:21;;;;;;;21.17;9.47;;;6.60;99.90;;;-143.32;94.38;55533.91;5062818;28;20404;-92
2021/04/02 10:01:49;;;;;;;15.57;8.10;;;6.50;99.90;;;-143.32;94.23;55537.94;5064315;28;20440;-93
2021/04/02 10:04:26;;;;;;;18.90;7.93;;;6.60;99.90;;;-143.32;93.66;55501.56;5064763;28;20547;-94
2021/04/02 10:06:54;;;;;;;16.30;7.03;;;6.60;99.90;;;-143.32;93.08;55548.03;5067166;28;20471;-93
2021/04/02 10:09:21;;;;;;;10.57;6.97;;;6.70;99.90;;;-143.32;92.74;55533.91;5067731;28;20476;-93
2021/04/02 10:11:50;;;;;;;20.13;7.10;;;6.80;99.90;;;-143.32;91.93;55521.78;5068916;28;20447;-93
2021/04/02 10:14:19;;;;;;;21.67;8.13;;;6.80;99.90;;;-143.32;92.21;55574.31;5068230;28;20455;-92
2021/04/02 10:16:47;;;;;;;15.40;6.50;;;6.90;99.90;;;-143.32;91.51;55550.06;5067464;28;20456;-92
2021/04/02 10:19:14;;;;;;;13.27;7.47;;;6.90;99.90;;;-143.32;92.32;55546.03;5064035;28;20526;-93
2021/04/02 10:21:43;;;;;;;15.40;7.73;;;6.90;99.90;;;-143.32;92.29;55525.81;5061676;28;20440;-93
2021/04/02 10:24:11;;;;;;;12.37;7.80;;;6.80;99.90;;;-143.32;92.55;55539.97;5062500;28;20483;-93
2021/04/02 10:26:39;;;;;;;16.37;7.20;;;6.70;99.90;;;-143.32;92.66;55556.13;5064262;28;20468;-93
2021/04/02 10:29:07;;;;;;;12.00;7.07;;;6.70;99.90;;;-143.32;92.43;55574.31;5056704;28;20533;-93
2021/04/02 10:31:35;;;;;;;15.30;8.00;;;6.70;99.90;;;-143.32;92.25;55566.22;5061443;28;20436;-92
2021/04/02 10:34:04;;;;;;;14.40;7.80;;;6.80;99.90;;;-143.32;91.94;55539.97;5063296;28;20546;-93
2021/04/02 10:36:31;;;;;;;15.70;7.80;;;6.80;99.90;;;-143.32;90.56;55570.28;5065461;28;20443;-93